Time;durP1;ratioP1;P1;durP2;ratioP2;P2;SDS_P1;SDS_P2;PMS_P1;PMS_P2;Temp;Humidity;BMP_temperature;BMP_pressure;BME280_temperature;BME280_humidity;BME280_pressure;Samples;Min_cycle;Max_cycle;Signal;HPM_P1;HPM_P2
2022/07/11 00:00:08;;;;;;;;;;;21.90;53.70;;;;;;5021799;28;20351;-76
2022/07/11 00:02:35;;;;;;;;;;;21.80;53.60;;;;;;5023636;28;19929;-76
2022/07/11 00:05:02;;;;;;;;;;;21.80;53.60;;;;;;5020092;28;20028;-76
2022/07/11 00:07:29;;;;;;;;;;;21.80;53.80;;;;;;5019366;28;19955;-76
2022/07/11 00:09:57;;;;;;;;;;;21.80;53.80;;;;;;5025084;28;19968;-76
2022/07/11 00:12:26;;;;;;;;;;;21.80;53.70;;;;;;5021730;28;19928;-76
2022/07/11 00:14:53;;;;;;;;;;;21.70;53.80;;;;;;5020698;28;20348;-76
2022/07/11 00:17:19;;;;;;;;;;;21.70;53.90;;;;;;5020110;28;19929;-76
2022/07/11 00:19:46;;;;;;;;;;;21.70;54.00;;;;;;5021972;28;19930;-76
2022/07/11 00:22:13;;;;;;;;;;;21.70;54.00;;;;;;5022258;28;19984;-76
2022/07/11 00:24:40;;;;;;;;;;;21.70;54.10;;;;;;5023778;28;19936;-76
2022/07/11 00:27:07;;;;;;;;;;;21.70;54.10;;;;;;5022813;28;19929;-76
2022/07/11 00:29:34;;;;;;;;;;;21.70;54.20;;;;;;5022611;28;19929;-76
2022/07/11 00:32:01;;;;;;;;;;;21.60;54.20;;;;;;5019606;28;20747;-76
2022/07/11 00:34:27;;;;;;;;;;;21.60;54.20;;;;;;5024092;28;19932;-76
2022/07/11 00:36:54;;;;;;;;;;;21.60;54.30;;;;;;5021088;28;20601;-76
2022/07/11 00:39:20;;;;;;;;;;;21.60;54.30;;;;;;5022760;28;20020;-76
2022/07/11 00:41:47;;;;;;;;;;;21.60;54.50;;;;;;5023324;28;19937;-76
2022/07/11 00:44:15;;;;;;;;;;;21.60;54.60;;;;;;5021241;28;19933;-76
2022/07/11 00:46:41;;;;;;;;;;;21.60;54.70;;;;;;5018225;28;19929;-76
2022/07/11 00:49:08;;;;;;;;;;;21.50;54.60;;;;;;5021371;28;19929;-76
2022/07/11 00:51:35;;;;;;;;;;;21.50;54.60;;;;;;5021639;28;19929;-76
2022/07/11 00:54:02;;;;;;;;;;;21.50;54.70;;;;;;5021144;28;19929;-76
2022/07/11 00:56:30;;;;;;;;;;;21.50;54.80;;;;;;5022018;28;19936;-75
2022/07/11 00:58:57;;;;;;;;;;;21.50;54.80;;;;;;5020652;28;19964;-76
2022/07/11 01:01:25;;;;;;;;;;;21.40;54.80;;;;;;5020516;28;19936;-76
2022/07/11 01:03:52;;;;;;;;;;;21.40;55.50;;;;;;5017062;28;19929;-76
2022/07/11 01:06:19;;;;;;;;;;;21.40;55.00;;;;;;5022280;28;20039;-76
2022/07/11 01:08:45;;;;;;;;;;;21.40;55.10;;;;;;5022475;28;19956;-76
2022/07/11 01:11:15;;;;;;;;;;;21.40;55.20;;;;;;5021540;28;19929;-75
2022/07/11 01:13:42;;;;;;;;;;;21.40;55.20;;;;;;5016501;28;19928;-76
2022/07/11 01:16:09;;;;;;;;;;;21.40;55.20;;;;;;5020459;28;19936;-76
2022/07/11 01:18:37;;;;;;;;;;;21.40;55.30;;;;;;5020895;28;19929;-76
2022/07/11 01:21:07;;;;;;;;;;;21.30;55.30;;;;;;5020131;28;19929;-76
2022/07/11 01:23:36;;;;;;;;;;;21.30;55.30;;;;;;5023854;28;20320;-76
2022/07/11 01:26:02;;;;;;;;;;;21.30;55.40;;;;;;5021394;28;19929;-76
2022/07/11 01:28:29;;;;;;;;;;;21.30;55.60;;;;;;5020095;28;19947;-76
2022/07/11 01:30:55;;;;;;;;;;;21.30;55.80;;;;;;5019762;28;20358;-76
2022/07/11 01:33:22;;;;;;;;;;;21.20;55.90;;;;;;5017996;28;19941;-76
2022/07/11 01:35:48;;;;;;;;;;;21.20;56.00;;;;;;5019619;28;19929;-76
2022/07/11 01:38:15;;;;;;;;;;;21.20;56.00;;;;;;5020715;28;19928;-76
2022/07/11 01:40:43;;;;;;;;;;;21.20;56.10;;;;;;5021263;28;19929;-76
2022/07/11 01:43:09;;;;;;;;;;;21.20;56.30;;;;;;5019362;28;19933;-76
2022/07/11 01:45:36;;;;;;;;;;;21.20;56.30;;;;;;5018987;28;19929;-76
2022/07/11 01:48:02;;;;;;;;;;;21.20;56.40;;;;;;5020263;28;19933;-76
2022/07/11 01:50:29;;;;;;;;;;;21.20;56.40;;;;;;5020811;28;19929;-76
2022/07/11 01:52:56;;;;;;;;;;;21.10;56.50;;;;;;5019439;28;19933;-76
2022/07/11 01:55:22;;;;;;;;;;;21.10;56.60;;;;;;5026944;28;19936;-76
2022/07/11 01:57:50;;;;;;;;;;;21.10;56.70;;;;;;5023553;28;19936;-76
2022/07/11 02:00:16;;;;;;;;;;;21.10;56.80;;;;;;5021240;28;19929;-76
2022/07/11 02:02:43;;;;;;;;;;;21.10;56.80;;;;;;5022711;28;19929;-76
2022/07/11 02:05:09;;;;;;;;;;;21.10;56.90;;;;;;5023354;28;20017;-76
2022/07/11 02:10:20;;;;;;;;;;;21.00;57.10;;;;;;5022921;28;20310;-76
2022/07/11 02:12:47;;;;;;;;;;;21.00;57.20;;;;;;5022036;28;19929;-76
2022/07/11 02:15:15;;;;;;;;;;;21.00;57.30;;;;;;5021828;28;20637;-76
2022/07/11 02:17:41;;;;;;;;;;;21.00;57.50;;;;;;5024365;28;20312;-76
2022/07/11 02:20:08;;;;;;;;;;;21.00;57.60;;;;;;5022816;28;20389;-76
2022/07/11 02:22:35;;;;;;;;;;;20.90;57.70;;;;;;5026691;28;19940;-76
2022/07/11 02:25:01;;;;;;;;;;;20.90;58.30;;;;;;5023272;28;20424;-76
2022/07/11 02:27:28;;;;;;;;;;;20.90;57.70;;;;;;5025721;28;19929;-76
2022/07/11 02:29:54;;;;;;;;;;;20.90;57.80;;;;;;5025594;28;19944;-76
2022/07/11 02:32:22;;;;;;;;;;;20.80;57.90;;;;;;5022667;28;19933;-76
2022/07/11 02:34:49;;;;;;;;;;;20.80;58.00;;;;;;5027408;28;19933;-76
2022/07/11 02:37:15;;;;;;;;;;;20.80;58.10;;;;;;5022884;28;19936;-76
2022/07/11 02:39:42;;;;;;;;;;;20.80;58.20;;;;;;5026505;28;19956;-76
2022/07/11 02:42:08;;;;;;;;;;;20.80;58.30;;;;;;5024713;28;19929;-76
2022/07/11 02:44:35;;;;;;;;;;;20.70;58.30;;;;;;5023705;28;20462;-76
2022/07/11 02:47:02;;;;;;;;;;;20.70;58.40;;;;;;5027857;28;20383;-76
2022/07/11 02:49:32;;;;;;;;;;;20.70;58.50;;;;;;5031120;28;19936;-76
2022/07/11 02:51:58;;;;;;;;;;;20.60;58.40;;;;;;5021986;28;19935;-76
2022/07/11 02:54:25;;;;;;;;;;;20.60;58.50;;;;;;5023016;28;19951;-76
2022/07/11 02:56:51;;;;;;;;;;;20.60;58.60;;;;;;5022478;28;19940;-76
2022/07/11 02:59:18;;;;;;;;;;;20.60;58.70;;;;;;5021898;28;19940;-76
2022/07/11 03:01:45;;;;;;;;;;;20.50;58.60;;;;;;5022376;28;20024;-76
2022/07/11 03:04:12;;;;;;;;;;;20.50;58.80;;;;;;5018224;28;19959;-75
2022/07/11 03:06:40;;;;;;;;;;;20.50;59.40;;;;;;5023522;28;20393;-76
2022/07/11 03:09:08;;;;;;;;;;;20.50;58.90;;;;;;5023703;28;19933;-76
2022/07/11 03:11:35;;;;;;;;;;;20.50;59.00;;;;;;5021499;28;19929;-76
2022/07/11 03:14:02;;;;;;;;;;;20.40;59.00;;;;;;5020955;28;19929;-76
2022/07/11 03:16:28;;;;;;;;;;;20.40;59.10;;;;;;5020521;28;19929;-76
2022/07/11 03:18:55;;;;;;;;;;;20.40;59.10;;;;;;5022888;28;19940;-76
2022/07/11 03:21:21;;;;;;;;;;;20.40;59.30;;;;;;5022494;28;20587;-76
2022/07/11 03:23:50;;;;;;;;;;;20.40;59.30;;;;;;5019541;28;20393;-76
2022/07/11 03:26:17;;;;;;;;;;;20.30;59.30;;;;;;5020923;28;20015;-76
2022/07/11 03:28:43;;;;;;;;;;;20.30;59.30;;;;;;5021267;28;19944;-76
2022/07/11 03:31:10;;;;;;;;;;;20.30;59.30;;;;;;5020966;28;19960;-76
2022/07/11 03:33:37;;;;;;;;;;;20.30;59.40;;;;;;5023390;28;20023;-76
2022/07/11 03:36:04;;;;;;;;;;;20.30;59.50;;;;;;5022846;28;19929;-76
2022/07/11 03:38:30;;;;;;;;;;;20.20;59.40;;;;;;5022185;28;19932;-76
2022/07/11 03:40:58;;;;;;;;;;;20.20;59.50;;;;;;5023906;28;19934;-76
2022/07/11 03:43:25;;;;;;;;;;;20.20;59.60;;;;;;5020890;28;19940;-76
2022/07/11 03:45:51;;;;;;;;;;;20.20;59.70;;;;;;5019370;28;19940;-76
2022/07/11 03:48:18;;;;;;;;;;;20.20;59.60;;;;;;5023920;28;19932;-76
2022/07/11 03:50:44;;;;;;;;;;;20.20;59.70;;;;;;5021643;28;19932;-76
2022/07/11 03:53:11;;;;;;;;;;;20.10;59.80;;;;;;5020821;28;19992;-76
2022/07/11 03:55:37;;;;;;;;;;;20.10;59.90;;;;;;5023240;28;19933;-76
2022/07/11 03:58:06;;;;;;;;;;;20.10;59.90;;;;;;5024003;28;19929;-76
2022/07/11 04:00:33;;;;;;;;;;;20.10;60.00;;;;;;5022792;28;19936;-76
2022/07/11 04:02:59;;;;;;;;;;;20.10;60.10;;;;;;5015677;28;19940;-76
2022/07/11 04:05:27;;;;;;;;;;;20.00;60.10;;;;;;5022208;28;19929;-77
2022/07/11 04:07:53;;;;;;;;;;;20.00;60.20;;;;;;5020400;28;19929;-76
2022/07/11 04:10:20;;;;;;;;;;;20.00;60.20;;;;;;5022951;28;19972;-75
2022/07/11 04:12:46;;;;;;;;;;;20.00;60.30;;;;;;5021339;28;20456;-77
2022/07/11 04:15:14;;;;;;;;;;;20.00;60.30;;;;;;5019850;28;19944;-76
2022/07/11 04:17:41;;;;;;;;;;;20.00;60.50;;;;;;5024497;28;19937;-76
2022/07/11 04:20:07;;;;;;;;;;;19.90;60.40;;;;;;5023836;28;19936;-76
2022/07/11 04:22:34;;;;;;;;;;;19.90;60.50;;;;;;5019148;28;19941;-76
2022/07/11 04:25:01;;;;;;;;;;;19.90;60.50;;;;;;5024154;28;19929;-77
2022/07/11 04:27:27;;;;;;;;;;;19.90;60.60;;;;;;5021714;28;19936;-75
2022/07/11 04:29:54;;;;;;;;;;;19.90;60.60;;;;;;5020847;28;20359;-76
2022/07/11 04:32:22;;;;;;;;;;;19.90;60.80;;;;;;5019271;28;19937;-76
2022/07/11 04:34:48;;;;;;;;;;;19.90;60.80;;;;;;5021816;28;19928;-77
2022/07/11 04:37:15;;;;;;;;;;;19.90;60.80;;;;;;5020796;28;21773;-75
2022/07/11 04:39:45;;;;;;;;;;;19.80;60.90;;;;;;5022291;28;20309;-75
2022/07/11 04:42:11;;;;;;;;;;;19.80;60.90;;;;;;5022071;28;20397;-76
2022/07/11 04:44:38;;;;;;;;;;;19.80;61.00;;;;;;5022376;28;20415;-77
2022/07/11 04:47:05;;;;;;;;;;;19.80;61.00;;;;;;5018604;28;19933;-77
2022/07/11 04:49:33;;;;;;;;;;;19.80;61.10;;;;;;5023449;28;19933;-76
2022/07/11 04:52:00;;;;;;;;;;;19.80;61.10;;;;;;5021382;28;20007;-76
2022/07/11 04:54:27;;;;;;;;;;;19.80;61.20;;;;;;5022144;28;19936;-77
2022/07/11 04:56:53;;;;;;;;;;;19.80;61.20;;;;;;5022611;28;19937;-76
2022/07/11 04:59:20;;;;;;;;;;;19.80;61.20;;;;;;5021914;28;19944;-77
2022/07/11 05:01:46;;;;;;;;;;;19.70;61.90;;;;;;5023675;28;19936;-76
2022/07/11 05:04:13;;;;;;;;;;;19.70;61.20;;;;;;5018029;28;19936;-77
2022/07/11 05:06:41;;;;;;;;;;;19.70;62.00;;;;;;5024081;28;19936;-77
2022/07/11 05:09:08;;;;;;;;;;;19.70;61.30;;;;;;5020322;28;19940;-77
2022/07/11 05:11:35;;;;;;;;;;;19.70;61.40;;;;;;5022034;28;20028;-77
2022/07/11 05:14:02;;;;;;;;;;;19.70;61.40;;;;;;5021933;28;19933;-77
2022/07/11 05:16:29;;;;;;;;;;;19.70;61.40;;;;;;5024579;28;19936;-77
2022/07/11 05:18:55;;;;;;;;;;;19.70;61.40;;;;;;5022992;28;19972;-76
2022/07/11 05:21:23;;;;;;;;;;;19.70;61.40;;;;;;5021404;28;19936;-77
2022/07/11 05:23:51;;;;;;;;;;;19.70;61.40;;;;;;5020387;28;19933;-77
2022/07/11 05:26:18;;;;;;;;;;;19.70;61.50;;;;;;5023819;28;19936;-77
2022/07/11 05:28:45;;;;;;;;;;;19.70;61.50;;;;;;5026135;28;19975;-78
2022/07/11 05:31:11;;;;;;;;;;;19.70;61.60;;;;;;5023820;28;19933;-76
2022/07/11 05:33:38;;;;;;;;;;;19.70;61.50;;;;;;5027172;28;19940;-77
2022/07/11 05:36:05;;;;;;;;;;;19.70;61.60;;;;;;5025881;28;20057;-77
2022/07/11 05:38:31;;;;;;;;;;;19.60;61.60;;;;;;5029018;28;19929;-77
2022/07/11 05:40:59;;;;;;;;;;;19.70;61.80;;;;;;5028229;28;19929;-77
2022/07/11 05:43:26;;;;;;;;;;;19.70;61.70;;;;;;5029610;28;19940;-77
2022/07/11 05:45:52;;;;;;;;;;;19.70;61.80;;;;;;5025353;28;20003;-77
2022/07/11 05:48:19;;;;;;;;;;;19.70;61.70;;;;;;5028816;28;19956;-76
2022/07/11 05:50:45;;;;;;;;;;;19.70;61.70;;;;;;5025608;28;19936;-76
2022/07/11 05:53:12;;;;;;;;;;;19.70;61.70;;;;;;5025602;28;20388;-76
2022/07/11 05:55:39;;;;;;;;;;;19.70;61.70;;;;;;5028036;28;20012;-76
2022/07/11 05:58:07;;;;;;;;;;;19.70;61.70;;;;;;5027504;28;19944;-77
2022/07/11 06:00:33;;;;;;;;;;;19.70;61.60;;;;;;5025561;28;19936;-77
2022/07/11 06:03:00;;;;;;;;;;;19.70;61.60;;;;;;5027614;28;20163;-76
2022/07/11 06:05:27;;;;;;;;;;;19.70;61.50;;;;;;5030474;28;19936;-76
2022/07/11 06:10:39;;;;;;;;;;;19.70;61.30;;;;;;5029272;28;19931;-77
2022/07/11 06:13:06;;;;;;;;;;;19.70;61.10;;;;;;5028139;28;19929;-76
2022/07/11 06:15:33;;;;;;;;;;;19.80;61.30;;;;;;5026167;28;19929;-77
2022/07/11 06:17:59;;;;;;;;;;;19.70;61.20;;;;;;5031334;28;20301;-76
2022/07/11 06:20:26;;;;;;;;;;;19.70;61.30;;;;;;5025890;28;20964;-77
2022/07/11 06:22:53;;;;;;;;;;;19.70;61.40;;;;;;5024244;28;19929;-76
2022/07/11 06:25:20;;;;;;;;;;;19.70;61.30;;;;;;5026111;28;20340;-75
2022/07/11 06:27:46;;;;;;;;;;;19.80;61.40;;;;;;5024693;28;20410;-76
2022/07/11 06:30:14;;;;;;;;;;;19.70;61.50;;;;;;5026489;28;19936;-76
2022/07/11 06:32:41;;;;;;;;;;;19.80;61.60;;;;;;5023901;28;19936;-75
2022/07/11 06:35:08;;;;;;;;;;;19.80;61.50;;;;;;5027926;28;19936;-76
2022/07/11 06:37:35;;;;;;;;;;;19.80;61.40;;;;;;5021211;28;20026;-75
2022/07/11 06:40:01;;;;;;;;;;;19.80;61.50;;;;;;5022876;28;19936;-76
2022/07/11 06:42:28;;;;;;;;;;;19.90;61.70;;;;;;5023919;28;19929;-76
2022/07/11 06:44:55;;;;;;;;;;;19.80;61.60;;;;;;5020651;28;19940;-75
2022/07/11 06:47:23;;;;;;;;;;;19.90;61.80;;;;;;5021356;28;19929;-76
2022/07/11 06:49:49;;;;;;;;;;;19.90;61.80;;;;;;5024567;28;19929;-75
2022/07/11 06:52:16;;;;;;;;;;;19.90;61.80;;;;;;5021943;28;19937;-76
2022/07/11 06:54:42;;;;;;;;;;;19.90;61.80;;;;;;5022822;28;19941;-76
2022/07/11 06:57:09;;;;;;;;;;;19.90;61.70;;;;;;5022306;28;19933;-75
2022/07/11 06:59:35;;;;;;;;;;;19.90;61.70;;;;;;5020368;28;19929;-75
2022/07/11 07:02:02;;;;;;;;;;;19.90;61.60;;;;;;5023213;28;20065;-75
2022/07/11 07:04:30;;;;;;;;;;;19.90;61.40;;;;;;5023512;28;19925;-75
2022/07/11 07:06:58;;;;;;;;;;;20.00;61.40;;;;;;5022613;28;19936;-75
2022/07/11 07:09:26;;;;;;;;;;;20.00;61.20;;;;;;5021749;28;20320;-76
2022/07/11 07:11:52;;;;;;;;;;;20.00;61.10;;;;;;5021048;28;20416;-74
2022/07/11 07:14:19;;;;;;;;;;;20.00;61.10;;;;;;5022808;28;20172;-75
2022/07/11 07:16:45;;;;;;;;;;;20.00;61.00;;;;;;5020737;28;20016;-75
2022/07/11 07:19:12;;;;;;;;;;;20.10;61.10;;;;;;5020008;28;19933;-76
2022/07/11 07:21:40;;;;;;;;;;;20.10;60.90;;;;;;5019255;28;19929;-76
2022/07/11 07:24:06;;;;;;;;;;;20.10;60.90;;;;;;5020265;28;19929;-76
2022/07/11 07:26:33;;;;;;;;;;;20.10;60.80;;;;;;5012465;28;19944;-77
2022/07/11 07:29:00;;;;;;;;;;;20.10;60.70;;;;;;5016732;28;20625;-77
2022/07/11 07:31:26;;;;;;;;;;;20.10;61.40;;;;;;5013946;28;20041;-75
2022/07/11 07:33:53;;;;;;;;;;;20.10;60.40;;;;;;5011504;28;19935;-76
2022/07/11 07:36:19;;;;;;;;;;;20.10;60.40;;;;;;5011705;28;19976;-76
2022/07/11 07:38:47;;;;;;;;;;;20.20;60.40;;;;;;5016149;28;19936;-76
2022/07/11 07:41:14;;;;;;;;;;;20.20;60.50;;;;;;5016509;28;19940;-75
2022/07/11 07:43:41;;;;;;;;;;;20.20;60.50;;;;;;5008330;28;19936;-76
2022/07/11 07:46:09;;;;;;;;;;;20.20;60.30;;;;;;5013312;28;19960;-76
2022/07/11 07:48:35;;;;;;;;;;;20.20;60.30;;;;;;5016684;28;19933;-75
2022/07/11 07:51:02;;;;;;;;;;;20.20;61.00;;;;;;5023917;28;19937;-76
2022/07/11 07:53:28;;;;;;;;;;;20.30;60.20;;;;;;5023170;28;19936;-76
2022/07/11 07:55:56;;;;;;;;;;;20.30;60.30;;;;;;5020029;28;19941;-75
2022/07/11 07:58:23;;;;;;;;;;;20.30;60.40;;;;;;5021171;28;20419;-76
2022/07/11 08:03:33;;;;;;;;;;;20.30;60.10;;;;;;5018965;28;20340;-76
2022/07/11 08:06:00;;;;;;;;;;;20.30;60.20;;;;;;5018397;28;20010;-76
2022/07/11 08:08:26;;;;;;;;;;;20.40;60.10;;;;;;5021880;28;19933;-76
2022/07/11 08:10:53;;;;;;;;;;;20.40;60.20;;;;;;5022318;28;19940;-77
2022/07/11 08:13:21;;;;;;;;;;;20.40;60.10;;;;;;5014877;28;19936;-77
2022/07/11 08:15:47;;;;;;;;;;;20.40;60.00;;;;;;5018273;28;19951;-77
2022/07/11 08:18:14;;;;;;;;;;;20.50;60.20;;;;;;5016242;28;19929;-77
2022/07/11 08:20:41;;;;;;;;;;;20.50;60.20;;;;;;5019489;28;19936;-73
2022/07/11 08:23:07;;;;;;;;;;;20.50;60.20;;;;;;5015928;28;19935;-75
2022/07/11 08:25:34;;;;;;;;;;;20.50;60.30;;;;;;5021000;28;19936;-77
2022/07/11 08:28:00;;;;;;;;;;;20.50;60.10;;;;;;5019650;28;19929;-75
2022/07/11 08:30:29;;;;;;;;;;;20.60;60.10;;;;;;5016745;28;19939;-75
2022/07/11 08:32:56;;;;;;;;;;;20.60;59.90;;;;;;5023780;28;19961;-76
2022/07/11 08:35:22;;;;;;;;;;;20.60;59.90;;;;;;5017620;28;19929;-75
2022/07/11 08:37:49;;;;;;;;;;;20.70;59.80;;;;;;5019809;28;19929;-75
2022/07/11 08:40:16;;;;;;;;;;;20.70;59.70;;;;;;5015361;28;19933;-76
2022/07/11 08:42:43;;;;;;;;;;;20.70;59.70;;;;;;5008116;28;20123;-77
2022/07/11 08:45:11;;;;;;;;;;;20.80;59.60;;;;;;5010261;28;19973;-76
2022/07/11 08:47:40;;;;;;;;;;;20.80;59.50;;;;;;5011133;28;20032;-77
2022/07/11 08:50:07;;;;;;;;;;;20.80;59.40;;;;;;5022478;28;19929;-77
2022/07/11 08:52:34;;;;;;;;;;;20.80;59.30;;;;;;5020262;28;19937;-77
2022/07/11 08:55:05;;;;;;;;;;;20.80;59.20;;;;;;5024777;28;20016;-77
2022/07/11 08:57:31;;;;;;;;;;;20.80;59.20;;;;;;5017971;28;19929;-77
2022/07/11 08:59:58;;;;;;;;;;;20.90;59.10;;;;;;5023205;28;20367;-77
2022/07/11 09:02:25;;;;;;;;;;;21.00;59.20;;;;;;5023249;28;19933;-76
2022/07/11 09:04:53;;;;;;;;;;;21.00;59.10;;;;;;5026554;28;19936;-77
2022/07/11 09:07:19;;;;;;;;;;;21.00;59.00;;;;;;5025724;28;19936;-77
2022/07/11 09:09:46;;;;;;;;;;;21.10;58.90;;;;;;5028958;28;19936;-77
2022/07/11 09:12:13;;;;;;;;;;;21.10;58.80;;;;;;5027469;28;19937;-77
2022/07/11 09:14:40;;;;;;;;;;;21.10;58.70;;;;;;5026973;28;19929;-77
2022/07/11 09:17:08;;;;;;;;;;;21.20;58.50;;;;;;5024995;28;19936;-77
2022/07/11 09:19:36;;;;;;;;;;;21.20;58.40;;;;;;5024984;28;19937;-77
2022/07/11 09:27:42;;;;;;;;;;;21.40;58.00;;;;;;5021568;28;19956;-77
2022/07/11 09:30:19;;;;;;;;;;;21.50;57.90;;;;;;5024030;28;19929;-77
2022/07/11 09:32:52;;;;;;;;;;;21.60;57.80;;;;;;5022452;28;19933;-77
2022/07/11 09:35:19;;;;;;;;;;;21.60;57.60;;;;;;5018562;28;19997;-76
2022/07/11 09:37:48;;;;;;;;;;;21.60;57.40;;;;;;5016322;28;19936;-76
2022/07/11 09:40:14;;;;;;;;;;;21.60;57.40;;;;;;5023041;28;19979;-75
2022/07/11 09:42:48;;;;;;;;;;;21.70;57.40;;;;;;5023479;28;19936;-75
2022/07/11 09:45:16;;;;;;;;;;;21.70;57.40;;;;;;5016848;28;20471;-76
2022/07/11 09:47:43;;;;;;;;;;;21.80;57.40;;;;;;5023190;28;19929;-75
2022/07/11 09:50:10;;;;;;;;;;;21.80;57.30;;;;;;5024938;28;19929;-75
2022/07/11 09:52:37;;;;;;;;;;;21.80;57.30;;;;;;5019183;28;19933;-75
2022/07/11 09:55:06;;;;;;;;;;;21.80;57.00;;;;;;5025742;28;19928;-75
2022/07/11 09:57:37;;;;;;;;;;;21.90;56.70;;;;;;5020892;28;19944;-74
2022/07/11 10:00:05;;;;;;;;;;;21.90;56.60;;;;;;5016403;28;19939;-73
2022/07/11 10:02:34;;;;;;;;;;;22.00;56.60;;;;;;5022259;28;19988;-74
2022/07/11 10:05:02;;;;;;;;;;;22.00;56.40;;;;;;5006002;28;20737;-73
2022/07/11 10:07:29;;;;;;;;;;;22.00;56.30;;;;;;5018517;28;19991;-73
2022/07/11 10:09:56;;;;;;;;;;;22.10;56.40;;;;;;5022706;28;19933;-74
2022/07/11 10:12:25;;;;;;;;;;;22.10;56.40;;;;;;5021618;28;20023;-73
2022/07/11 10:14:51;;;;;;;;;;;22.20;56.70;;;;;;5017842;28;19929;-73
2022/07/11 10:17:23;;;;;;;;;;;22.20;56.70;;;;;;5020921;28;19933;-73
2022/07/11 10:19:53;;;;;;;;;;;22.20;56.50;;;;;;5018487;28;20100;-73
2022/07/11 10:22:23;;;;;;;;;;;22.30;56.60;;;;;;5017682;28;19987;-74
2022/07/11 10:24:54;;;;;;;;;;;22.30;56.60;;;;;;5023648;28;19933;-77
2022/07/11 10:27:23;;;;;;;;;;;22.30;56.60;;;;;;5018698;28;19929;-75
2022/07/11 10:29:52;;;;;;;;;;;22.40;56.40;;;;;;5016877;28;19934;-76
2022/07/11 10:32:19;;;;;;;;;;;22.40;56.00;;;;;;5024001;28;20007;-74
2022/07/11 10:34:46;;;;;;;;;;;22.40;56.10;;;;;;5022977;28;19933;-74
2022/07/11 10:37:14;;;;;;;;;;;22.50;56.10;;;;;;5020629;28;20387;-75
2022/07/11 10:39:57;;;;;;;;;;;22.50;56.10;;;;;;5022069;28;19929;-74
2022/07/11 10:42:24;;;;;;;;;;;22.60;56.10;;;;;;5021202;28;19929;-74
2022/07/11 10:44:52;;;;;;;;;;;22.60;56.20;;;;;;5019478;28;19957;-74
2022/07/11 10:47:36;;;;;;;;;;;22.60;55.60;;;;;;5019839;28;20412;-74
2022/07/11 10:50:06;;;;;;;;;;;22.70;55.70;;;;;;5024151;28;19932;-74
2022/07/11 10:52:34;;;;;;;;;;;22.70;56.10;;;;;;5020060;28;20397;-74
2022/07/11 10:55:08;;;;;;;;;;;22.80;56.20;;;;;;5021258;28;19929;-75
2022/07/11 10:57:40;;;;;;;;;;;22.80;56.10;;;;;;5019381;28;19936;-74
2022/07/11 11:00:11;;;;;;;;;;;22.90;56.10;;;;;;5019129;28;19929;-75
2022/07/11 11:02:53;;;;;;;;;;;22.90;56.40;;;;;;5020097;28;20020;-75
2022/07/11 11:05:34;;;;;;;;;;;22.90;56.60;;;;;;5016985;28;19929;-75
2022/07/11 11:08:01;;;;;;;;;;;23.00;56.50;;;;;;5020098;28;19936;-77
2022/07/11 11:10:52;;;;;;;;;;;23.00;55.80;;;;;;5023448;28;19929;-76
2022/07/11 11:13:20;;;;;;;;;;;23.00;55.50;;;;;;5020545;28;19968;-73
2022/07/11 11:15:49;;;;;;;;;;;23.00;55.20;;;;;;5018223;28;19964;-74
2022/07/11 11:18:34;;;;;;;;;;;23.10;55.30;;;;;;5018946;28;19936;-76
2022/07/11 11:21:13;;;;;;;;;;;23.10;55.40;;;;;;5014762;28;20051;-75
2022/07/11 11:23:40;;;;;;;;;;;23.10;54.80;;;;;;5022268;28;20196;-74
2022/07/11 11:26:07;;;;;;;;;;;23.20;54.50;;;;;;5020948;28;19964;-74
2022/07/11 11:28:34;;;;;;;;;;;23.30;54.60;;;;;;5019521;28;19937;-74
2022/07/11 11:31:03;;;;;;;;;;;23.30;54.60;;;;;;5021525;28;19941;-74
2022/07/11 11:33:30;;;;;;;;;;;23.40;54.70;;;;;;5023096;28;19940;-75
2022/07/11 11:36:00;;;;;;;;;;;23.40;54.80;;;;;;5020479;28;19933;-74
2022/07/11 11:38:27;;;;;;;;;;;23.40;54.60;;;;;;5019923;28;19936;-74
2022/07/11 11:40:53;;;;;;;;;;;23.50;54.80;;;;;;5021574;28;19929;-74
2022/07/11 11:43:20;;;;;;;;;;;23.50;54.70;;;;;;5023737;28;19936;-74
2022/07/11 11:45:47;;;;;;;;;;;23.60;54.10;;;;;;5011460;28;20373;-74
2022/07/11 11:48:27;;;;;;;;;;;23.60;54.30;;;;;;5020575;28;20705;-74
2022/07/11 11:51:00;;;;;;;;;;;23.60;54.40;;;;;;5020568;28;19933;-74
2022/07/11 11:53:27;;;;;;;;;;;23.70;54.40;;;;;;5024275;28;19929;-73
2022/07/11 11:55:53;;;;;;;;;;;23.70;54.20;;;;;;5025331;28;19933;-74
2022/07/11 11:58:20;;;;;;;;;;;23.80;54.20;;;;;;5023837;28;19928;-74
2022/07/11 12:00:54;;;;;;;;;;;23.80;54.20;;;;;;5021954;28;19933;-75
2022/07/11 12:03:20;;;;;;;;;;;23.90;54.10;;;;;;5025082;28;19929;-75
2022/07/11 12:05:57;;;;;;;;;;;23.90;54.00;;;;;;5021892;28;19936;-75
2022/07/11 12:08:27;;;;;;;;;;;24.00;53.90;;;;;;5018418;28;19929;-74
2022/07/11 12:10:54;;;;;;;;;;;24.00;53.90;;;;;;5024150;28;19936;-74
2022/07/11 12:13:21;;;;;;;;;;;24.00;53.90;;;;;;5025358;28;20412;-74
2022/07/11 12:18:36;;;;;;;;;;;24.10;53.10;;;;;;5026825;28;19947;-74
2022/07/11 12:21:11;;;;;;;;;;;24.20;53.30;;;;;;5022211;28;20020;-74
2022/07/11 12:23:37;;;;;;;;;;;24.20;53.00;;;;;;5024367;28;20344;-75
2022/07/11 12:26:04;;;;;;;;;;;24.20;52.90;;;;;;5025842;28;19929;-74
2022/07/11 12:28:32;;;;;;;;;;;24.30;53.10;;;;;;5024716;28;19929;-74
2022/07/11 12:30:59;;;;;;;;;;;24.30;53.20;;;;;;5019809;28;19937;-74
2022/07/11 12:33:25;;;;;;;;;;;24.40;53.40;;;;;;5023604;28;19929;-73
2022/07/11 12:35:57;;;;;;;;;;;24.50;53.30;;;;;;5022423;28;19940;-74
2022/07/11 12:38:24;;;;;;;;;;;24.50;53.50;;;;;;5022829;28;20022;-74
2022/07/11 12:41:01;;;;;;;;;;;24.50;53.40;;;;;;5019334;28;19936;-74
2022/07/11 12:46:29;;;;;;;;;;;24.60;52.80;;;;;;5019389;28;20014;-74
2022/07/11 12:48:55;;;;;;;;;;;24.60;53.10;;;;;;5019799;28;19929;-74
2022/07/11 12:51:32;;;;;;;;;;;24.60;52.90;;;;;;5021026;28;20015;-74
2022/07/11 12:54:04;;;;;;;;;;;24.60;53.00;;;;;;5017102;28;20401;-74
2022/07/11 12:56:31;;;;;;;;;;;24.70;52.70;;;;;;5012067;28;19933;-74
2022/07/11 12:58:58;;;;;;;;;;;24.70;52.80;;;;;;5014388;28;20083;-74
2022/07/11 13:01:24;;;;;;;;;;;24.80;52.70;;;;;;5018807;28;19925;-74
2022/07/11 13:03:51;;;;;;;;;;;24.80;52.80;;;;;;5020875;28;19969;-74
2022/07/11 13:08:41;;;;;;;;;;;24.80;52.60;;;;;;5015996;28;19933;-74
2022/07/11 13:09:05;;;;;;;;;;;24.90;52.00;;;;;;5013174;28;20348;-74
2022/07/11 13:11:32;;;;;;;;;;;24.90;52.20;;;;;;5014219;28;20039;-74
2022/07/11 13:13:59;;;;;;;;;;;24.90;52.60;;;;;;5018910;28;19983;-74
2022/07/11 13:16:25;;;;;;;;;;;24.90;52.40;;;;;;5017551;28;19936;-74
2022/07/11 13:18:52;;;;;;;;;;;25.00;52.70;;;;;;5019454;28;19964;-73
2022/07/11 13:21:19;;;;;;;;;;;25.00;52.60;;;;;;5007957;28;20027;-77
2022/07/11 13:23:46;;;;;;;;;;;25.00;52.30;;;;;;5016958;28;19933;-76
2022/07/11 13:26:15;;;;;;;;;;;25.10;52.20;;;;;;5012690;28;19929;-78
2022/07/11 13:28:42;;;;;;;;;;;25.10;52.10;;;;;;5010142;28;20731;-76
2022/07/11 13:31:09;;;;;;;;;;;25.10;52.60;;;;;;5008053;28;20490;-74
2022/07/11 13:33:36;;;;;;;;;;;25.10;52.20;;;;;;5019981;28;20016;-73
2022/07/11 13:36:02;;;;;;;;;;;25.20;52.00;;;;;;5019302;28;19935;-74
2022/07/11 13:38:29;;;;;;;;;;;25.20;51.80;;;;;;5013118;28;19929;-74
2022/07/11 13:40:56;;;;;;;;;;;25.30;52.10;;;;;;5015765;28;19932;-74
2022/07/11 13:43:24;;;;;;;;;;;25.30;52.10;;;;;;5013837;28;20375;-74
2022/07/11 13:45:52;;;;;;;;;;;25.30;52.10;;;;;;5011904;28;19929;-74
2022/07/11 13:48:18;;;;;;;;;;;25.30;52.00;;;;;;5015017;28;20474;-76
2022/07/11 13:50:45;;;;;;;;;;;25.40;52.00;;;;;;5022625;28;20439;-74
2022/07/11 13:53:11;;;;;;;;;;;25.40;51.50;;;;;;5022403;28;20568;-76
2022/07/11 13:55:38;;;;;;;;;;;25.40;51.40;;;;;;5017349;28;20320;-74
2022/07/11 13:58:23;;;;;;;;;;;25.40;51.40;;;;;;5012614;28;20400;-74
2022/07/11 14:00:52;;;;;;;;;;;25.50;51.50;;;;;;5013677;28;19933;-74
2022/07/11 14:03:19;;;;;;;;;;;25.60;51.90;;;;;;5012013;28;20431;-75
2022/07/11 14:05:45;;;;;;;;;;;25.60;51.30;;;;;;5014126;28;19936;-73
2022/07/11 14:08:12;;;;;;;;;;;25.60;51.40;;;;;;5015694;28;19940;-75
2022/07/11 14:10:40;;;;;;;;;;;25.60;51.30;;;;;;5015020;28;20105;-74
2022/07/11 14:13:07;;;;;;;;;;;25.70;51.20;;;;;;5017878;28;19936;-74
2022/07/11 14:15:33;;;;;;;;;;;25.70;51.00;;;;;;5018133;28;19941;-73
2022/07/11 14:18:02;;;;;;;;;;;25.70;51.00;;;;;;5011648;28;19929;-74
2022/07/11 14:20:28;;;;;;;;;;;25.70;51.10;;;;;;5011938;28;19972;-74
2022/07/11 14:22:55;;;;;;;;;;;25.70;51.10;;;;;;5019423;28;20290;-75
2022/07/11 14:25:23;;;;;;;;;;;25.80;51.10;;;;;;5023739;28;20352;-75
2022/07/11 14:27:50;;;;;;;;;;;25.80;51.00;;;;;;5018783;28;19936;-75
2022/07/11 14:30:16;;;;;;;;;;;25.80;50.80;;;;;;5019584;28;19925;-75
2022/07/11 14:32:43;;;;;;;;;;;25.80;50.90;;;;;;5023876;28;20393;-75
2022/07/11 14:35:11;;;;;;;;;;;25.80;50.80;;;;;;5010603;28;19940;-75
2022/07/11 14:37:37;;;;;;;;;;;25.90;50.90;;;;;;5018180;28;20400;-74